sensor_id;sensor_type;location;lat;lon;timestamp;pressure;altitude;pressure_sealevel;temperature;humidity
56831;BME280;42713;42.676;23.352;2024-02-21T00:01:55;95405.97;;;5.39;76.79
56831;BME280;42713;42.676;23.352;2024-02-21T00:04:21;95408.41;;;5.41;76.81
56831;BME280;42713;42.676;23.352;2024-02-21T00:06:46;95406.78;;;5.40;77.13
56831;BME280;42713;42.676;23.352;2024-02-21T00:09:12;95401.22;;;5.43;76.48
56831;BME280;42713;42.676;23.352;2024-02-21T00:11:37;95408.00;;;5.44;76.10
56831;BME280;42713;42.676;23.352;2024-02-21T00:14:03;95400.97;;;5.38;76.61
56831;BME280;42713;42.676;23.352;2024-02-21T00:16:47;95402.97;;;5.36;76.50
56831;BME280;42713;42.676;23.352;2024-02-21T00:19:12;95400.97;;;5.38;76.73
56831;BME280;42713;42.676;23.352;2024-02-21T00:21:39;95401.97;;;5.37;76.21
56831;BME280;42713;42.676;23.352;2024-02-21T00:24:05;95399.56;;;5.35;76.79
56831;BME280;42713;42.676;23.352;2024-02-21T00:26:31;95390.78;;;5.36;76.66
56831;BME280;42713;42.676;23.352;2024-02-21T00:28:56;95399.38;;;5.37;76.94
56831;BME280;42713;42.676;23.352;2024-02-21T00:31:22;95404.19;;;5.40;76.53
56831;BME280;42713;42.676;23.352;2024-02-21T00:33:47;95401.97;;;5.37;76.75
56831;BME280;42713;42.676;23.352;2024-02-21T00:36:13;95394.59;;;5.34;76.84
56831;BME280;42713;42.676;23.352;2024-02-21T00:38:38;95404.13;;;5.26;76.96
56831;BME280;42713;42.676;23.352;2024-02-21T00:41:03;95392.53;;;5.22;76.74
56831;BME280;42713;42.676;23.352;2024-02-21T00:43:29;95400.31;;;5.22;76.98
56831;BME280;42713;42.676;23.352;2024-02-21T00:45:54;95383.75;;;5.23;77.25
56831;BME280;42713;42.676;23.352;2024-02-21T00:48:20;95379.91;;;5.19;77.90
56831;BME280;42713;42.676;23.352;2024-02-21T00:50:45;95386.50;;;5.22;77.67
56831;BME280;42713;42.676;23.352;2024-02-21T00:53:11;95380.94;;;5.25;77.50
56831;BME280;42713;42.676;23.352;2024-02-21T00:55:36;95389.53;;;5.25;77.78
56831;BME280;42713;42.676;23.352;2024-02-21T00:58:01;95383.59;;;5.32;77.25
56831;BME280;42713;42.676;23.352;2024-02-21T01:00:27;95383.41;;;5.40;76.78
56831;BME280;42713;42.676;23.352;2024-02-21T01:02:52;95383.00;;;5.36;76.67
56831;BME280;42713;42.676;23.352;2024-02-21T01:05:18;95375.16;;;5.29;77.54
56831;BME280;42713;42.676;23.352;2024-02-21T01:07:44;95380.75;;;5.26;77.18
56831;BME280;42713;42.676;23.352;2024-02-21T01:10:11;95368.75;;;5.19;77.89
56831;BME280;42713;42.676;23.352;2024-02-21T01:12:36;95360.53;;;5.22;77.48
56831;BME280;42713;42.676;23.352;2024-02-21T01:15:02;95363.72;;;5.17;78.09
56831;BME280;42713;42.676;23.352;2024-02-21T01:17:28;95364.94;;;5.21;77.79
56831;BME280;42713;42.676;23.352;2024-02-21T01:19:53;95364.34;;;5.19;77.89
56831;BME280;42713;42.676;23.352;2024-02-21T01:22:19;95362.97;;;5.23;77.88
56831;BME280;42713;42.676;23.352;2024-02-21T01:24:44;95353.16;;;5.19;78.03
56831;BME280;42713;42.676;23.352;2024-02-21T01:27:10;95362.94;;;5.17;77.54
56831;BME280;42713;42.676;23.352;2024-02-21T01:29:35;95348.88;;;5.04;78.09
56831;BME280;42713;42.676;23.352;2024-02-21T01:32:01;95346.94;;;5.13;78.01
56831;BME280;42713;42.676;23.352;2024-02-21T01:34:26;95355.19;;;5.23;77.98
56831;BME280;42713;42.676;23.352;2024-02-21T01:36:52;95350.75;;;5.24;77.70
56831;BME280;42713;42.676;23.352;2024-02-21T01:39:17;95356.56;;;5.26;77.85
56831;BME280;42713;42.676;23.352;2024-02-21T01:41:42;95349.19;;;5.29;77.72
56831;BME280;42713;42.676;23.352;2024-02-21T01:44:08;95338.44;;;5.33;76.66
56831;BME280;42713;42.676;23.352;2024-02-21T01:46:34;95338.44;;;5.33;76.53
56831;BME280;42713;42.676;23.352;2024-02-21T01:49:00;95331.63;;;5.32;76.88
56831;BME280;42713;42.676;23.352;2024-02-21T01:51:26;95343.84;;;5.38;76.61
56831;BME280;42713;42.676;23.352;2024-02-21T01:53:55;95345.22;;;5.40;76.24
56831;BME280;42713;42.676;23.352;2024-02-21T01:56:20;95333.81;;;5.35;76.03
56831;BME280;42713;42.676;23.352;2024-02-21T01:58:47;95330.06;;;5.37;76.20
56831;BME280;42713;42.676;23.352;2024-02-21T02:01:13;95335.84;;;5.39;75.79
56831;BME280;42713;42.676;23.352;2024-02-21T02:03:39;95339.66;;;5.43;75.04
56831;BME280;42713;42.676;23.352;2024-02-21T02:06:05;95342.88;;;5.45;75.16
56831;BME280;42713;42.676;23.352;2024-02-21T02:08:32;95337.88;;;5.51;74.80
56831;BME280;42713;42.676;23.352;2024-02-21T02:10:57;95348.09;;;5.52;74.74
56831;BME280;42713;42.676;23.352;2024-02-21T02:13:23;95350.09;;;5.50;74.85
56831;BME280;42713;42.676;23.352;2024-02-21T02:15:49;95341.69;;;5.48;74.45
56831;BME280;42713;42.676;23.352;2024-02-21T02:18:17;95336.28;;;5.43;74.98
56831;BME280;42713;42.676;23.352;2024-02-21T02:20:44;95344.44;;;5.40;75.34
56831;BME280;42713;42.676;23.352;2024-02-21T02:25:37;95323.06;;;5.38;75.08
56831;BME280;42713;42.676;23.352;2024-02-21T02:28:04;95331.47;;;5.40;75.36
56831;BME280;42713;42.676;23.352;2024-02-21T02:30:35;95332.03;;;5.35;75.18
56831;BME280;42713;42.676;23.352;2024-02-21T02:33:04;95320.84;;;5.35;75.23
56831;BME280;42713;42.676;23.352;2024-02-21T02:35:30;95317.25;;;5.36;75.35
56831;BME280;42713;42.676;23.352;2024-02-21T02:37:55;95323.06;;;5.38;75.55
56831;BME280;42713;42.676;23.352;2024-02-21T02:40:21;95323.47;;;5.41;75.02
56831;BME280;42713;42.676;23.352;2024-02-21T02:42:46;95317.47;;;5.41;75.38
56831;BME280;42713;42.676;23.352;2024-02-21T02:45:15;95318.69;;;5.45;75.16
56831;BME280;42713;42.676;23.352;2024-02-21T02:47:41;95320.28;;;5.46;75.29
56831;BME280;42713;42.676;23.352;2024-02-21T02:50:07;95319.28;;;5.47;74.91
56831;BME280;42713;42.676;23.352;2024-02-21T02:52:33;95320.28;;;5.46;74.78
56831;BME280;42713;42.676;23.352;2024-02-21T02:54:58;95332.66;;;5.44;75.10
56831;BME280;42713;42.676;23.352;2024-02-21T02:57:24;95324.88;;;5.44;75.29
56831;BME280;42713;42.676;23.352;2024-02-21T02:59:52;95322.47;;;5.42;74.80
56831;BME280;42713;42.676;23.352;2024-02-21T03:02:38;95330.06;;;5.44;75.35
56831;BME280;42713;42.676;23.352;2024-02-21T03:05:14;95331.09;;;5.43;75.60
56831;BME280;42713;42.676;23.352;2024-02-21T03:07:40;95331.66;;;5.45;75.23
56831;BME280;42713;42.676;23.352;2024-02-21T03:10:06;95324.66;;;5.39;75.51
56831;BME280;42713;42.676;23.352;2024-02-21T03:12:32;95323.06;;;5.38;75.22
56831;BME280;42713;42.676;23.352;2024-02-21T03:14:57;95335.66;;;5.41;75.24
56831;BME280;42713;42.676;23.352;2024-02-21T03:17:23;95338.28;;;5.48;75.28
56831;BME280;42713;42.676;23.352;2024-02-21T03:19:48;95336.44;;;5.41;75.57
56831;BME280;42713;42.676;23.352;2024-02-21T03:22:15;95345.44;;;5.39;75.50
56831;BME280;42713;42.676;23.352;2024-02-21T03:24:41;95344.03;;;5.36;76.38
56831;BME280;42713;42.676;23.352;2024-02-21T03:27:07;95344.22;;;5.35;75.88
56831;BME280;42713;42.676;23.352;2024-02-21T03:29:33;95345.81;;;5.36;75.27
56831;BME280;42713;42.676;23.352;2024-02-21T03:31:59;95342.03;;;5.32;75.50
56831;BME280;42713;42.676;23.352;2024-02-21T03:34:24;95349.81;;;5.32;76.14
56831;BME280;42713;42.676;23.352;2024-02-21T03:36:49;95340.44;;;5.37;75.39
56831;BME280;42713;42.676;23.352;2024-02-21T03:39:15;95353.03;;;5.40;75.40
56831;BME280;42713;42.676;23.352;2024-02-21T03:41:40;95349.44;;;5.41;75.17
56831;BME280;42713;42.676;23.352;2024-02-21T03:44:06;95358.84;;;5.42;75.14
56831;BME280;42713;42.676;23.352;2024-02-21T03:46:50;95349.84;;;5.38;75.24
56831;BME280;42713;42.676;23.352;2024-02-21T03:49:16;95351.59;;;5.31;75.26
56831;BME280;42713;42.676;23.352;2024-02-21T03:51:41;95359.22;;;5.39;75.34
56831;BME280;42713;42.676;23.352;2024-02-21T03:54:06;95355.44;;;5.42;75.57
56831;BME280;42713;42.676;23.352;2024-02-21T03:56:32;95361.44;;;5.42;75.55
56831;BME280;42713;42.676;23.352;2024-02-21T03:59:17;95349.41;;;5.28;74.70
56831;BME280;42713;42.676;23.352;2024-02-21T04:01:43;95349.22;;;5.36;75.24
56831;BME280;42713;42.676;23.352;2024-02-21T04:04:09;95357.22;;;5.41;75.02
56831;BME280;42713;42.676;23.352;2024-02-21T04:06:35;95355.41;;;5.35;75.45
56831;BME280;42713;42.676;23.352;2024-02-21T04:09:00;95364.63;;;5.38;75.97
56831;BME280;42713;42.676;23.352;2024-02-21T04:11:26;95349.97;;;5.30;75.75
56831;BME280;42713;42.676;23.352;2024-02-21T04:13:51;95353.19;;;5.32;75.80
56831;BME280;42713;42.676;23.352;2024-02-21T04:16:17;95356.63;;;5.33;75.44
56831;BME280;42713;42.676;23.352;2024-02-21T04:18:43;95345.00;;;5.28;75.60
56831;BME280;42713;42.676;23.352;2024-02-21T04:21:09;95346.81;;;5.28;75.04
56831;BME280;42713;42.676;23.352;2024-02-21T04:23:35;95342.78;;;5.25;75.15
56831;BME280;42713;42.676;23.352;2024-02-21T04:26:00;95352.78;;;5.28;75.48
56831;BME280;42713;42.676;23.352;2024-02-21T04:28:26;95341.59;;;5.28;75.05
56831;BME280;42713;42.676;23.352;2024-02-21T04:30:51;95347.59;;;5.28;74.96
56831;BME280;42713;42.676;23.352;2024-02-21T04:33:18;95349.41;;;5.35;75.02
56831;BME280;42713;42.676;23.352;2024-02-21T04:35:43;95361.22;;;5.37;74.74
56831;BME280;42713;42.676;23.352;2024-02-21T04:38:09;95349.22;;;5.36;74.44
56831;BME280;42713;42.676;23.352;2024-02-21T04:40:34;95356.44;;;5.41;74.43
56831;BME280;42713;42.676;23.352;2024-02-21T04:43:18;95359.22;;;5.39;74.79
56831;BME280;42713;42.676;23.352;2024-02-21T04:45:43;95344.22;;;5.35;74.76
56831;BME280;42713;42.676;23.352;2024-02-21T04:48:09;95355.22;;;5.37;74.48
56831;BME280;42713;42.676;23.352;2024-02-21T04:50:34;95354.59;;;5.35;74.80
56831;BME280;42713;42.676;23.352;2024-02-21T04:52:59;95346.22;;;5.33;75.07
56831;BME280;42713;42.676;23.352;2024-02-21T04:55:25;95345.41;;;5.32;74.60
56831;BME280;42713;42.676;23.352;2024-02-21T04:57:50;95353.03;;;5.34;74.98
56831;BME280;42713;42.676;23.352;2024-02-21T05:00:16;95350.81;;;5.30;75.01
56831;BME280;42713;42.676;23.352;2024-02-21T05:02:41;95349.81;;;5.32;75.10
56831;BME280;42713;42.676;23.352;2024-02-21T05:05:07;95339.81;;;5.28;74.66
56831;BME280;42713;42.676;23.352;2024-02-21T05:07:52;95347.97;;;5.25;74.58
56831;BME280;42713;42.676;23.352;2024-02-21T05:10:17;95364.94;;;5.21;74.95
56831;BME280;42713;42.676;23.352;2024-02-21T05:12:44;95353.16;;;5.19;75.10
56831;BME280;42713;42.676;23.352;2024-02-21T05:15:10;95354.56;;;5.21;75.16
56831;BME280;42713;42.676;23.352;2024-02-21T05:17:35;95362.34;;;5.21;75.48
56831;BME280;42713;42.676;23.352;2024-02-21T05:20:00;95365.31;;;5.18;74.98
56831;BME280;42713;42.676;23.352;2024-02-21T05:22:26;95369.91;;;5.16;75.11
56831;BME280;42713;42.676;23.352;2024-02-21T05:24:51;95361.31;;;5.16;75.62
56831;BME280;42713;42.676;23.352;2024-02-21T05:27:17;95366.72;;;5.14;76.03
56831;BME280;42713;42.676;23.352;2024-02-21T05:29:42;95368.13;;;5.17;75.74
56831;BME280;42713;42.676;23.352;2024-02-21T05:32:08;95354.09;;;5.11;75.89
56831;BME280;42713;42.676;23.352;2024-02-21T05:34:33;95371.34;;;5.19;75.83
56831;BME280;42713;42.676;23.352;2024-02-21T05:36:58;95366.94;;;5.19;75.77
56831;BME280;42713;42.676;23.352;2024-02-21T05:39:25;95362.50;;;5.13;75.73
56831;BME280;42713;42.676;23.352;2024-02-21T05:41:51;95370.31;;;5.20;76.04
56831;BME280;42713;42.676;23.352;2024-02-21T05:44:18;95364.13;;;5.14;75.56
56831;BME280;42713;42.676;23.352;2024-02-21T05:46:44;95367.31;;;5.16;75.76
56831;BME280;42713;42.676;23.352;2024-02-21T05:49:10;95369.94;;;5.23;76.09
56831;BME280;42713;42.676;23.352;2024-02-21T05:51:35;95371.97;;;5.27;75.08
56831;BME280;42713;42.676;23.352;2024-02-21T05:54:01;95374.97;;;5.31;74.81
56831;BME280;42713;42.676;23.352;2024-02-21T05:56:27;95376.41;;;5.34;75.05
56831;BME280;42713;42.676;23.352;2024-02-21T05:58:53;95378.38;;;5.32;74.69
56831;BME280;42713;42.676;23.352;2024-02-21T06:01:18;95382.81;;;5.38;74.56
56831;BME280;42713;42.676;23.352;2024-02-21T06:03:44;95380.19;;;5.38;74.37
56831;BME280;42713;42.676;23.352;2024-02-21T06:06:10;95391.25;;;5.47;74.00
56831;BME280;42713;42.676;23.352;2024-02-21T06:08:35;95388.44;;;5.48;73.52
56831;BME280;42713;42.676;23.352;2024-02-21T06:11:01;95398.63;;;5.50;73.57
56831;BME280;42713;42.676;23.352;2024-02-21T06:13:27;95400.06;;;5.52;73.86
56831;BME280;42713;42.676;23.352;2024-02-21T06:15:52;95402.88;;;5.57;72.48
56831;BME280;42713;42.676;23.352;2024-02-21T06:18:18;95400.28;;;5.57;72.96
56831;BME280;42713;42.676;23.352;2024-02-21T06:20:44;95406.09;;;5.59;72.93
56831;BME280;42713;42.676;23.352;2024-02-21T06:23:11;95406.09;;;5.59;72.36
56831;BME280;42713;42.676;23.352;2024-02-21T06:25:37;95406.69;;;5.61;71.74
56831;BME280;42713;42.676;23.352;2024-02-21T06:28:03;95407.06;;;5.58;72.69
56831;BME280;42713;42.676;23.352;2024-02-21T06:30:29;95414.25;;;5.56;72.60
56831;BME280;42713;42.676;23.352;2024-02-21T06:32:54;95415.88;;;5.57;72.79
56831;BME280;42713;42.676;23.352;2024-02-21T06:35:24;95412.06;;;5.60;72.47
56831;BME280;42713;42.676;23.352;2024-02-21T06:37:50;95410.50;;;5.66;72.91
56831;BME280;42713;42.676;23.352;2024-02-21T06:40:17;95414.31;;;5.70;72.41
56831;BME280;42713;42.676;23.352;2024-02-21T06:42:42;95415.34;;;5.75;72.01
56831;BME280;42713;42.676;23.352;2024-02-21T06:45:08;95421.91;;;5.71;72.36
56831;BME280;42713;42.676;23.352;2024-02-21T06:47:34;95423.91;;;5.69;72.03
56831;BME280;42713;42.676;23.352;2024-02-21T06:49:59;95435.91;;;5.70;71.93
56831;BME280;42713;42.676;23.352;2024-02-21T06:52:25;95428.94;;;5.71;72.27
56831;BME280;42713;42.676;23.352;2024-02-21T06:54:50;95438.34;;;5.72;72.11
56831;BME280;42713;42.676;23.352;2024-02-21T06:57:16;95431.91;;;5.68;71.75
56831;BME280;42713;42.676;23.352;2024-02-21T06:59:42;95435.50;;;5.67;71.99
56831;BME280;42713;42.676;23.352;2024-02-21T07:02:09;95430.53;;;5.72;72.37
56831;BME280;42713;42.676;23.352;2024-02-21T07:04:34;95436.94;;;5.76;71.89
56831;BME280;42713;42.676;23.352;2024-02-21T07:07:00;95430.72;;;5.70;72.18
56831;BME280;42713;42.676;23.352;2024-02-21T07:09:25;95431.72;;;5.76;72.38
56831;BME280;42713;42.676;23.352;2024-02-21T07:11:51;95445.78;;;5.88;72.12
56831;BME280;42713;42.676;23.352;2024-02-21T07:14:18;95441.00;;;5.92;71.59
56831;BME280;42713;42.676;23.352;2024-02-21T07:16:43;95437.19;;;5.95;71.80
56831;BME280;42713;42.676;23.352;2024-02-21T07:19:12;95437.81;;;5.97;71.96
56831;BME280;42713;42.676;23.352;2024-02-21T07:21:37;95436.81;;;5.98;71.56
56831;BME280;42713;42.676;23.352;2024-02-21T07:24:05;95432.41;;;5.91;71.72
56831;BME280;42713;42.676;23.352;2024-02-21T07:26:31;95428.41;;;5.96;72.08
56831;BME280;42713;42.676;23.352;2024-02-21T07:28:57;95442.25;;;6.03;71.79
56831;BME280;42713;42.676;23.352;2024-02-21T07:31:22;95446.06;;;6.07;71.16
56831;BME280;42713;42.676;23.352;2024-02-21T07:33:48;95436.66;;;6.06;72.18
56831;BME280;42713;42.676;23.352;2024-02-21T07:36:15;95427.09;;;6.06;71.47
56831;BME280;42713;42.676;23.352;2024-02-21T07:38:41;95452.50;;;6.18;71.47
56831;BME280;42713;42.676;23.352;2024-02-21T07:41:08;95441.94;;;6.26;70.63
56831;BME280;42713;42.676;23.352;2024-02-21T07:43:33;95438.53;;;6.32;70.14
56831;BME280;42713;42.676;23.352;2024-02-21T07:45:59;95442.38;;;6.36;70.61
56831;BME280;42713;42.676;23.352;2024-02-21T07:48:24;95441.53;;;6.36;70.48
56831;BME280;42713;42.676;23.352;2024-02-21T07:50:51;95433.28;;;6.19;71.08
56831;BME280;42713;42.676;23.352;2024-02-21T07:53:17;95422.91;;;6.12;71.68
56831;BME280;42713;42.676;23.352;2024-02-21T07:55:43;95427.91;;;6.20;71.78
56831;BME280;42713;42.676;23.352;2024-02-21T07:58:08;95426.72;;;6.23;70.92
56831;BME280;42713;42.676;23.352;2024-02-21T08:00:33;95427.75;;;6.35;71.11
56831;BME280;42713;42.676;23.352;2024-02-21T08:02:59;95429.53;;;6.35;70.82
56831;BME280;42713;42.676;23.352;2024-02-21T08:05:24;95423.34;;;6.36;71.11
56831;BME280;42713;42.676;23.352;2024-02-21T08:07:50;95427.16;;;6.40;70.51
56831;BME280;42713;42.676;23.352;2024-02-21T08:10:15;95430.75;;;6.39;71.28
56831;BME280;42713;42.676;23.352;2024-02-21T08:12:41;95432.16;;;6.48;70.68
56831;BME280;42713;42.676;23.352;2024-02-21T08:15:06;95431.34;;;6.54;69.82
56831;BME280;42713;42.676;23.352;2024-02-21T08:17:37;95430.97;;;6.58;70.45
56831;BME280;42713;42.676;23.352;2024-02-21T08:20:04;95434.97;;;6.60;69.87
56831;BME280;42713;42.676;23.352;2024-02-21T08:22:30;95427.38;;;6.65;70.61
56831;BME280;42713;42.676;23.352;2024-02-21T08:24:55;95429.78;;;6.80;69.39
56831;BME280;42713;42.676;23.352;2024-02-21T08:27:21;95425.16;;;6.89;69.44
56831;BME280;42713;42.676;23.352;2024-02-21T08:29:47;95416.34;;;6.97;69.32
56831;BME280;42713;42.676;23.352;2024-02-21T08:32:12;95427.16;;;7.07;68.86
56831;BME280;42713;42.676;23.352;2024-02-21T08:34:38;95429.75;;;7.07;68.01
56831;BME280;42713;42.676;23.352;2024-02-21T08:37:03;95409.53;;;7.09;67.46
56831;BME280;42713;42.676;23.352;2024-02-21T08:39:29;95408.09;;;7.13;67.19
56831;BME280;42713;42.676;23.352;2024-02-21T08:41:56;95411.31;;;7.15;67.08
56831;BME280;42713;42.676;23.352;2024-02-21T08:44:23;95423.50;;;7.22;66.69
56831;BME280;42713;42.676;23.352;2024-02-21T08:46:49;95417.50;;;7.28;66.14
56831;BME280;42713;42.676;23.352;2024-02-21T08:49:15;95425.50;;;7.33;66.70
56831;BME280;42713;42.676;23.352;2024-02-21T08:51:40;95426.94;;;7.29;65.76
56831;BME280;42713;42.676;23.352;2024-02-21T08:54:05;95417.31;;;7.16;65.87
56831;BME280;42713;42.676;23.352;2024-02-21T08:56:31;95419.91;;;7.23;65.83
56831;BME280;42713;42.676;23.352;2024-02-21T08:58:57;95427.94;;;7.28;66.07
56831;BME280;42713;42.676;23.352;2024-02-21T09:01:23;95426.31;;;7.27;66.93
56831;BME280;42713;42.676;23.352;2024-02-21T09:03:48;95437.75;;;7.32;66.08
56831;BME280;42713;42.676;23.352;2024-02-21T09:06:18;95432.94;;;7.23;65.89
56831;BME280;42713;42.676;23.352;2024-02-21T09:08:45;95435.34;;;7.24;65.52
56831;BME280;42713;42.676;23.352;2024-02-21T09:11:10;95428.16;;;7.20;65.90
56831;BME280;42713;42.676;23.352;2024-02-21T09:13:36;95427.56;;;7.11;65.80
56831;BME280;42713;42.676;23.352;2024-02-21T09:16:01;95432.75;;;7.24;65.54
56831;BME280;42713;42.676;23.352;2024-02-21T09:18:26;95432.75;;;7.24;64.87
56831;BME280;42713;42.676;23.352;2024-02-21T09:20:52;95428.72;;;7.28;65.75
56831;BME280;42713;42.676;23.352;2024-02-21T09:23:17;95426.72;;;7.37;66.21
56831;BME280;42713;42.676;23.352;2024-02-21T09:25:45;95427.09;;;7.41;65.24
56831;BME280;42713;42.676;23.352;2024-02-21T09:28:11;95422.91;;;7.26;64.93
56831;BME280;42713;42.676;23.352;2024-02-21T09:30:38;95421.72;;;7.15;65.94
56831;BME280;42713;42.676;23.352;2024-02-21T09:33:03;95420.34;;;7.06;65.89
56831;BME280;42713;42.676;23.352;2024-02-21T09:35:30;95429.16;;;7.05;66.31
56831;BME280;42713;42.676;23.352;2024-02-21T09:37:56;95431.56;;;7.07;66.98
56831;BME280;42713;42.676;23.352;2024-02-21T09:40:21;95437.38;;;7.15;66.31
56831;BME280;42713;42.676;23.352;2024-02-21T09:42:48;95429.16;;;7.12;66.04
56831;BME280;42713;42.676;23.352;2024-02-21T09:45:21;95432.34;;;7.21;65.64
56831;BME280;42713;42.676;23.352;2024-02-21T09:50:17;95434.56;;;7.10;66.48
56831;BME280;42713;42.676;23.352;2024-02-21T09:52:43;95421.13;;;7.13;66.83
56831;BME280;42713;42.676;23.352;2024-02-21T09:55:09;95419.91;;;7.23;66.73
56831;BME280;42713;42.676;23.352;2024-02-21T09:57:38;95426.31;;;7.34;66.19
56831;BME280;42713;42.676;23.352;2024-02-21T10:00:05;95424.09;;;7.37;65.65
56831;BME280;42713;42.676;23.352;2024-02-21T10:02:33;95422.50;;;7.43;65.21
56831;BME280;42713;42.676;23.352;2024-02-21T10:04:58;95434.69;;;7.49;65.09
56831;BME280;42713;42.676;23.352;2024-02-21T10:07:24;95415.44;;;7.57;64.91
56831;BME280;42713;42.676;23.352;2024-02-21T10:10:00;95417.41;;;7.61;62.63
56831;BME280;42713;42.676;23.352;2024-02-21T10:12:26;95415.97;;;7.66;62.89
56831;BME280;42713;42.676;23.352;2024-02-21T10:15:00;95404.41;;;7.55;61.92
56831;BME280;42713;42.676;23.352;2024-02-21T10:17:26;95409.78;;;7.60;62.04
56831;BME280;42713;42.676;23.352;2024-02-21T10:19:51;95401.81;;;7.48;62.07
56831;BME280;42713;42.676;23.352;2024-02-21T10:22:17;95399.41;;;7.46;63.08
56831;BME280;42713;42.676;23.352;2024-02-21T10:24:43;95392.59;;;7.45;63.03
56831;BME280;42713;42.676;23.352;2024-02-21T10:27:09;95412.00;;;7.63;62.35
56831;BME280;42713;42.676;23.352;2024-02-21T10:29:36;95391.09;;;7.70;60.86
56831;BME280;42713;42.676;23.352;2024-02-21T10:32:12;95396.28;;;7.83;59.63
56831;BME280;42713;42.676;23.352;2024-02-21T10:34:39;95393.06;;;7.81;58.69
56831;BME280;42713;42.676;23.352;2024-02-21T10:37:09;95383.63;;;7.87;58.73
56831;BME280;42713;42.676;23.352;2024-02-21T10:39:37;95373.97;;;7.87;58.23
56831;BME280;42713;42.676;23.352;2024-02-21T10:42:03;95366.75;;;7.89;58.95
56831;BME280;42713;42.676;23.352;2024-02-21T10:44:30;95357.28;;;7.95;58.90
56831;BME280;42713;42.676;23.352;2024-02-21T10:46:57;95349.59;;;8.07;59.38
56831;BME280;42713;42.676;23.352;2024-02-21T10:49:24;95342.84;;;8.24;58.56
56831;BME280;42713;42.676;23.352;2024-02-21T10:51:59;95345.59;;;8.36;58.50
56831;BME280;42713;42.676;23.352;2024-02-21T10:57:29;95345.81;;;8.60;57.55
56831;BME280;42713;42.676;23.352;2024-02-21T10:59:58;95326.25;;;8.69;56.91
56831;BME280;42713;42.676;23.352;2024-02-21T11:02:25;95321.50;;;8.85;56.99
56831;BME280;42713;42.676;23.352;2024-02-21T11:04:54;95324.13;;;9.03;56.70
56831;BME280;42713;42.676;23.352;2024-02-21T11:07:20;95308.38;;;9.10;56.20
56831;BME280;42713;42.676;23.352;2024-02-21T11:09:52;95311.84;;;9.23;55.74
56831;BME280;42713;42.676;23.352;2024-02-21T11:12:23;95316.50;;;9.39;52.58
56831;BME280;42713;42.676;23.352;2024-02-21T11:14:48;95301.38;;;9.41;52.18
56831;BME280;42713;42.676;23.352;2024-02-21T11:17:18;95310.59;;;9.44;51.01
56831;BME280;42713;42.676;23.352;2024-02-21T11:19:44;95308.19;;;9.42;52.41
56831;BME280;42713;42.676;23.352;2024-02-21T11:22:20;95311.31;;;9.51;49.68
56831;BME280;42713;42.676;23.352;2024-02-21T11:24:50;95310.72;;;9.49;49.63
56831;BME280;42713;42.676;23.352;2024-02-21T11:27:16;95305.06;;;9.52;48.69
56831;BME280;42713;42.676;23.352;2024-02-21T11:29:49;95319.78;;;9.65;49.09
56831;BME280;42713;42.676;23.352;2024-02-21T11:32:20;95302.66;;;9.69;48.94
56831;BME280;42713;42.676;23.352;2024-02-21T11:35:03;95302.19;;;9.72;48.74
56831;BME280;42713;42.676;23.352;2024-02-21T11:37:48;95305.16;;;9.76;47.67
56831;BME280;42713;42.676;23.352;2024-02-21T11:40:14;95293.91;;;9.75;47.76
56831;BME280;42713;42.676;23.352;2024-02-21T11:42:39;95293.09;;;9.75;48.79
56831;BME280;42713;42.676;23.352;2024-02-21T11:45:06;95288.31;;;9.72;48.74
56831;BME280;42713;42.676;23.352;2024-02-21T11:47:32;95287.41;;;9.78;48.78
56831;BME280;42713;42.676;23.352;2024-02-21T11:49:57;95289.25;;;9.77;49.06
56831;BME280;42713;42.676;23.352;2024-02-21T11:52:24;95276.16;;;9.77;49.04
56831;BME280;42713;42.676;23.352;2024-02-21T11:54:51;95273.56;;;9.77;48.35
56831;BME280;42713;42.676;23.352;2024-02-21T11:57:17;95275.34;;;9.77;49.17
56831;BME280;42713;42.676;23.352;2024-02-21T11:59:44;95279.88;;;9.70;49.65
56831;BME280;42713;42.676;23.352;2024-02-21T12:02:11;95269.88;;;9.66;49.04
56831;BME280;42713;42.676;23.352;2024-02-21T12:04:36;95302.06;;;9.67;48.62
56831;BME280;42713;42.676;23.352;2024-02-21T12:07:02;95284.28;;;9.57;49.02
56831;BME280;42713;42.676;23.352;2024-02-21T12:09:29;95280.59;;;9.46;49.02
56831;BME280;42713;42.676;23.352;2024-02-21T12:12:03;95286.56;;;9.35;49.43
56831;BME280;42713;42.676;23.352;2024-02-21T12:14:29;95283.16;;;9.34;49.74
56831;BME280;42713;42.676;23.352;2024-02-21T12:17:01;95281.00;;;9.31;50.42
56831;BME280;42713;42.676;23.352;2024-02-21T12:19:30;95276.06;;;9.23;51.13
56831;BME280;42713;42.676;23.352;2024-02-21T12:21:56;95256.63;;;9.00;51.97
56831;BME280;42713;42.676;23.352;2024-02-21T12:26:53;95250.25;;;8.96;52.21
56831;BME280;42713;42.676;23.352;2024-02-21T12:29:22;95264.88;;;8.97;52.86
56831;BME280;42713;42.676;23.352;2024-02-21T12:31:50;95258.22;;;9.01;51.85
56831;BME280;42713;42.676;23.352;2024-02-21T12:34:16;95258.66;;;8.98;52.35
56831;BME280;42713;42.676;23.352;2024-02-21T12:36:45;95254.00;;;9.00;52.34
56831;BME280;42713;42.676;23.352;2024-02-21T12:39:13;95244.88;;;8.91;51.38
56831;BME280;42713;42.676;23.352;2024-02-21T12:41:40;95242.91;;;8.86;50.85
56831;BME280;42713;42.676;23.352;2024-02-21T12:44:07;95257.34;;;8.89;51.29
56831;BME280;42713;42.676;23.352;2024-02-21T12:46:35;95245.09;;;8.90;50.77
56831;BME280;42713;42.676;23.352;2024-02-21T12:49:01;95251.63;;;8.99;50.44
56831;BME280;42713;42.676;23.352;2024-02-21T12:51:28;95251.75;;;9.04;50.08
56831;BME280;42713;42.676;23.352;2024-02-21T12:53:53;95259.28;;;9.12;50.26
56831;BME280;42713;42.676;23.352;2024-02-21T12:56:20;95256.53;;;9.07;51.39
56831;BME280;42713;42.676;23.352;2024-02-21T12:58:45;95234.84;;;8.88;52.86
56831;BME280;42713;42.676;23.352;2024-02-21T13:01:11;95251.03;;;8.78;53.34
56831;BME280;42713;42.676;23.352;2024-02-21T13:03:36;95242.84;;;8.75;54.63
56831;BME280;42713;42.676;23.352;2024-02-21T13:06:02;95254.22;;;8.62;55.69
56831;BME280;42713;42.676;23.352;2024-02-21T13:08:28;95235.78;;;8.75;55.64